Time;durP1;ratioP1;P1;durP2;ratioP2;P2;SDS_P1;SDS_P2;PMS_P1;PMS_P2;Temp;Humidity;BMP_temperature;BMP_pressure;BME280_temperature;BME280_humidity;BME280_pressure;Samples;Min_cycle;Max_cycle;Signal;HPM_P1;HPM_P2
2021/04/30 00:01:31;;;;;;;;;;;;;;;-144.99;100.00;52187.19;5045808;28;19954;-62
2021/04/30 00:03:57;;;;;;;;;;;;;;;-144.99;100.00;52191.28;5049529;28;19999;-62
2021/04/30 00:06:25;;;;;;;;;;;;;;;-144.99;100.00;52183.13;5050027;28;19963;-62
2021/04/30 00:08:51;;;;;;;;;;;;;;;-144.99;100.00;52174.97;5049574;28;19974;-63
2021/04/30 00:11:18;;;;;;;;;;;;;;;-144.99;100.00;52162.75;5049510;28;20340;-62
2021/04/30 00:13:44;;;;;;;;;;;;;;;-144.99;100.00;52199.44;5049719;28;19959;-61
2021/04/30 00:16:09;;;;;;;;;;;;;;;-144.99;100.00;52207.59;5048857;28;19954;-63
2021/04/30 00:18:38;;;;;;;;;;;;;;;-144.99;100.00;52211.66;5049914;28;20066;-63
2021/04/30 00:21:07;;;;;;;;;;;;;;;-144.99;100.00;52199.44;5050063;28;19960;-61
2021/04/30 00:23:36;;;;;;;;;;;;;;;-144.99;100.00;52199.44;5042116;28;19955;-61
2021/04/30 00:26:03;;;;;;;;;;;;;;;-144.99;100.00;52195.34;5049182;28;19961;-61
2021/04/30 00:28:33;;;;;;;;;;;;;;;-144.99;100.00;52191.28;5049681;28;20050;-61
2021/04/30 00:30:59;;;;;;;;;;;;;;;-144.99;100.00;52207.59;5048553;28;19960;-63
2021/04/30 00:33:28;;;;;;;;;;;;;;;-144.99;100.00;52256.50;5051082;28;19957;-63
2021/04/30 00:35:55;;;;;;;;;;;;;;;-144.99;100.00;52211.66;5050744;28;20413;-63
2021/04/30 00:38:21;;;;;;;;;;;;;;;-144.99;100.00;52219.81;5049588;28;20233;-62
2021/04/30 00:40:47;;;;;;;;;;;;;;;-144.99;100.00;52219.81;5047933;28;19990;-62
2021/04/30 00:43:16;;;;;;;;;;;;;;;-144.99;100.00;52223.88;5049201;28;20456;-62
2021/04/30 00:45:43;;;;;;;;;;;;;;;-144.99;100.00;52191.28;5048911;28;19968;-62
2021/04/30 00:48:12;;;;;;;;;;;;;;;-144.99;100.00;52207.59;5048506;28;19993;-62
2021/04/30 00:50:38;;;;;;;;;;;;;;;-144.99;100.00;52213.69;5047408;28;19961;-62
2021/04/30 00:53:04;;;;;;;;;;;;;;;-144.99;100.00;52201.47;5049006;28;20316;-62
2021/04/30 00:55:33;;;;;;;;;;;;;;;-144.99;100.00;52181.09;5047637;28;19948;-62
2021/04/30 00:57:59;;;;;;;;;;;;;;;-144.99;100.00;52187.19;5048645;28;20378;-62
2021/04/30 01:00:26;;;;;;;;;;;;;;;-144.99;100.00;52193.31;5048578;28;20420;-61
2021/04/30 01:02:53;;;;;;;;;;;;;;;-144.99;100.00;52203.50;5049321;28;20143;-62
2021/04/30 01:05:19;;;;;;;;;;;;;;;-144.99;100.00;52215.75;5049111;28;19968;-62
2021/04/30 01:07:48;;;;;;;;;;;;;;;-144.99;100.00;52215.75;5050531;28;19993;-62
2021/04/30 01:10:17;;;;;;;;;;;;;;;-144.99;100.00;52197.41;5050363;28;19973;-63
2021/04/30 01:12:43;;;;;;;;;;;;;;;-144.99;100.00;52199.44;5052386;28;20031;-61
2021/04/30 01:15:09;;;;;;;;;;;;;;;-144.99;100.00;52209.63;5052430;28;19988;-62
2021/04/30 01:17:36;;;;;;;;;;;;;;;-144.99;100.00;52213.69;5051857;28;19961;-65
2021/04/30 01:20:03;;;;;;;;;;;;;;;-144.99;100.00;52124.03;5051909;28;20094;-61
2021/04/30 01:22:37;;;;;;;;;;;;;;;-144.99;100.00;52211.66;5049404;28;19981;-61
2021/04/30 01:25:06;;;;;;;;;;;;;;;-144.99;100.00;52219.81;5052306;28;19953;-62
2021/04/30 01:27:32;;;;;;;;;;;;;;;-144.99;100.00;52191.28;5050008;28;20362;-61
2021/04/30 01:29:58;;;;;;;;;;;;;;;-144.99;100.00;52217.78;5051827;28;19966;-62
2021/04/30 01:32:27;;;;;;;;;;;;;;;-144.99;100.00;52191.28;5051789;28;20434;-61
2021/04/30 01:34:53;;;;;;;;;;;;;;;-144.99;100.00;52191.28;5053023;28;19956;-62
2021/04/30 01:37:19;;;;;;;;;;;;;;;-144.99;100.00;52187.19;5052312;28;19964;-62
2021/04/30 01:39:45;;;;;;;;;;;;;;;-144.99;100.00;52207.59;5051714;28;19970;-62
2021/04/30 01:42:11;;;;;;;;;;;;;;;-144.99;100.00;52199.44;5051965;28;20015;-62
2021/04/30 01:44:40;;;;;;;;;;;;;;;-144.99;100.00;52215.75;5052378;28;20369;-62
2021/04/30 01:47:06;;;;;;;;;;;;;;;-144.99;100.00;52195.34;5051885;28;19958;-62
2021/04/30 01:49:32;;;;;;;;;;;;;;;-144.99;100.00;52223.88;5052082;28;19973;-63
2021/04/30 01:52:00;;;;;;;;;;;;;;;-144.99;100.00;52211.66;5051479;28;20428;-62
2021/04/30 01:54:26;;;;;;;;;;;;;;;-144.99;100.00;52215.75;5052154;28;19953;-63
2021/04/30 01:56:53;;;;;;;;;;;;;;;-144.99;100.00;52219.81;5051609;28;20047;-62
2021/04/30 01:59:19;;;;;;;;;;;;;;;-144.99;100.00;52193.31;5052129;28;19974;-62
2021/04/30 02:01:45;;;;;;;;;;;;;;;-144.99;100.00;52197.41;5051705;28;19952;-61
2021/04/30 02:04:11;;;;;;;;;;;;;;;-144.99;100.00;52199.44;5052352;28;19974;-63
2021/04/30 02:06:38;;;;;;;;;;;;;;;-144.99;100.00;52199.44;5051738;28;20046;-62
2021/04/30 02:09:07;;;;;;;;;;;;;;;-144.99;100.00;52187.19;5051765;28;19967;-62
2021/04/30 02:11:35;;;;;;;;;;;;;;;-144.99;100.00;52230.00;5051180;28;19956;-62
2021/04/30 02:14:06;;;;;;;;;;;;;;;-144.99;100.00;52183.13;5051564;28;19958;-62
2021/04/30 02:16:33;;;;;;;;;;;;;;;-144.99;100.00;52199.44;5050647;28;19952;-62
2021/04/30 02:19:01;;;;;;;;;;;;;;;-144.99;100.00;52203.50;5050104;28;19973;-62
2021/04/30 02:21:27;;;;;;;;;;;;;;;-144.99;100.00;52199.44;5051928;28;19954;-62
2021/04/30 02:23:54;;;;;;;;;;;;;;;-144.99;100.00;52252.44;5051490;28;20399;-62
2021/04/30 02:26:22;;;;;;;;;;;;;;;-144.99;100.00;52215.75;5051538;28;20054;-62
2021/04/30 02:28:48;;;;;;;;;;;;;;;-144.99;100.00;52199.44;5051007;28;20003;-62
2021/04/30 02:31:15;;;;;;;;;;;;;;;-144.99;100.00;52205.53;5051394;28;19962;-62
2021/04/30 02:33:41;;;;;;;;;;;;;;;-144.99;100.00;52217.78;5051653;28;19949;-61
2021/04/30 02:36:10;;;;;;;;;;;;;;;-144.99;100.00;52211.66;5048687;28;19951;-61
2021/04/30 02:38:36;;;;;;;;;;;;;;;-144.99;100.00;52183.13;5051466;28;19988;-61
2021/04/30 02:41:02;;;;;;;;;;;;;;;-144.99;100.00;52203.50;5051114;28;20523;-61
2021/04/30 02:43:28;;;;;;;;;;;;;;;-144.99;100.00;52199.44;5050992;28;19949;-60
2021/04/30 02:45:54;;;;;;;;;;;;;;;-144.99;100.00;52183.13;5050637;28;20384;-62
2021/04/30 02:48:28;;;;;;;;;;;;;;;-144.99;100.00;52211.66;5050670;28;19982;-61
2021/04/30 02:50:55;;;;;;;;;;;;;;;-144.99;100.00;52195.34;5051002;28;19952;-61
2021/04/30 02:53:21;;;;;;;;;;;;;;;-144.99;100.00;52215.75;5050563;28;19959;-62
2021/04/30 02:55:46;;;;;;;;;;;;;;;-144.99;100.00;52187.19;5050662;28;20035;-61
2021/04/30 02:58:12;;;;;;;;;;;;;;;-144.99;100.00;52232.03;5050404;28;19984;-62
2021/04/30 03:00:41;;;;;;;;;;;;;;;-144.99;100.00;52211.66;5050575;28;19988;-62
2021/04/30 03:03:09;;;;;;;;;;;;;;;-144.99;100.00;52232.03;5050791;28;19958;-62
2021/04/30 03:05:39;;;;;;;;;;;;;;;-144.99;100.00;52183.13;5050712;28;20001;-61
2021/04/30 03:08:05;;;;;;;;;;;;;;;-144.99;100.00;52195.34;5050359;28;19980;-62
2021/04/30 03:10:34;;;;;;;;;;;;;;;-144.99;100.00;52215.75;5050203;28;20414;-62
2021/04/30 03:12:59;;;;;;;;;;;;;;;-144.99;100.00;52199.44;5050632;28;20116;-62
2021/04/30 03:15:26;;;;;;;;;;;;;;;-144.99;100.00;52213.69;5050167;28;19950;-62
2021/04/30 03:17:53;;;;;;;;;;;;;;;-144.99;100.00;52195.34;5050185;28;20001;-62
2021/04/30 03:20:22;;;;;;;;;;;;;;;-144.99;100.00;52244.28;5049856;28;19952;-61
2021/04/30 03:22:48;;;;;;;;;;;;;;;-144.99;100.00;52195.34;5050381;28;19950;-63
2021/04/30 03:25:15;;;;;;;;;;;;;;;-144.99;100.00;52215.75;5049418;28;19960;-62
2021/04/30 03:27:44;;;;;;;;;;;;;;;-144.99;100.00;52199.44;5049825;28;19956;-62
2021/04/30 03:30:10;;;;;;;;;;;;;;;-144.99;100.00;52217.78;5049135;28;19952;-62
2021/04/30 03:32:39;;;;;;;;;;;;;;;-144.99;100.00;52160.72;5049869;28;20351;-62
2021/04/30 03:35:08;;;;;;;;;;;;;;;-144.99;100.00;52256.50;5050031;28;19954;-63
2021/04/30 03:37:35;;;;;;;;;;;;;;;-144.99;99.92;52230.00;5048799;28;19948;-62
2021/04/30 03:40:02;;;;;;;;;;;;;;;-144.99;99.88;52179.06;5049913;28;20000;-61
2021/04/30 03:42:33;;;;;;;;;;;;;;;-144.99;99.78;52280.97;5049924;28;20007;-61
2021/04/30 03:45:02;;;;;;;;;;;;;;;-144.99;99.88;52199.44;5049835;28;19958;-61
2021/04/30 03:47:28;;;;;;;;;;;;;;;-144.99;99.79;52199.44;5049954;28;19950;-61
2021/04/30 03:49:54;;;;;;;;;;;;;;;-144.99;99.85;52207.59;5048710;28;20034;-61
2021/04/30 03:52:20;;;;;;;;;;;;;;;-144.99;99.90;52195.34;5049423;28;19955;-60
2021/04/30 03:54:48;;;;;;;;;;;;;;;-144.99;99.58;52174.97;5049689;28;19975;-60
2021/04/30 03:57:18;;;;;;;;;;;;;;;-144.99;99.58;52201.47;5049580;28;20004;-61
2021/04/30 03:59:49;;;;;;;;;;;;;;;-144.99;99.50;52219.81;5049626;28;19978;-61
2021/04/30 04:02:15;;;;;;;;;;;;;;;-144.99;99.45;52223.88;5049357;28;20011;-60
2021/04/30 04:04:44;;;;;;;;;;;;;;;-144.99;99.44;52236.13;5049714;28;19950;-60
2021/04/30 04:07:12;;;;;;;;;;;;;;;-144.99;99.52;52254.47;5047283;28;20353;-60
2021/04/30 04:09:38;;;;;;;;;;;;;;;-144.99;99.38;52209.63;5049258;28;19973;-60
2021/04/30 04:12:05;;;;;;;;;;;;;;;-144.99;99.33;52223.88;5049792;28;19960;-60
2021/04/30 04:14:32;;;;;;;;;;;;;;;-144.99;99.40;52223.88;5046545;28;19950;-60
2021/04/30 04:17:01;;;;;;;;;;;;;;;-144.99;99.40;52221.84;5049179;28;19955;-62
2021/04/30 04:19:30;;;;;;;;;;;;;;;-144.99;99.38;52223.88;5049088;28;19968;-61
2021/04/30 04:21:58;;;;;;;;;;;;;;;-144.99;99.25;52236.13;5045283;28;19953;-61
2021/04/30 04:24:24;;;;;;;;;;;;;;;-144.99;99.20;52227.97;5049268;28;19960;-61
2021/04/30 04:26:50;;;;;;;;;;;;;;;-144.99;99.26;52230.00;5049010;28;19956;-61
2021/04/30 04:29:16;;;;;;;;;;;;;;;-144.99;99.12;52203.50;5049694;28;19971;-61
2021/04/30 04:31:43;;;;;;;;;;;;;;;-144.99;99.05;52248.34;5049761;28;19951;-61
2021/04/30 04:34:08;;;;;;;;;;;;;;;-144.99;98.91;52215.75;5049623;28;20195;-61
2021/04/30 04:36:34;;;;;;;;;;;;;;;-144.99;99.01;52203.50;5049946;28;20124;-62
2021/04/30 04:39:00;;;;;;;;;;;;;;;-144.99;98.98;52219.81;5049322;28;20480;-61
2021/04/30 04:41:26;;;;;;;;;;;;;;;-144.99;98.94;52223.88;5048930;28;19954;-61
2021/04/30 04:43:55;;;;;;;;;;;;;;;-144.99;98.82;52221.84;5052308;28;19950;-61
2021/04/30 04:46:21;;;;;;;;;;;;;;;-144.99;98.80;52187.19;5052834;28;19954;-61
2021/04/30 04:48:48;;;;;;;;;;;;;;;-144.99;98.82;52211.66;5052676;28;20018;-60
2021/04/30 04:51:14;;;;;;;;;;;;;;;-144.99;98.80;52248.34;5052543;28;20415;-61
2021/04/30 04:53:40;;;;;;;;;;;;;;;-144.99;98.68;52211.66;5053139;28;20034;-61
2021/04/30 04:56:05;;;;;;;;;;;;;;;-144.99;98.65;52207.59;5052589;28;19954;-61
2021/04/30 04:58:34;;;;;;;;;;;;;;;-144.99;98.48;52166.81;5052947;28;19972;-61
2021/04/30 05:01:00;;;;;;;;;;;;;;;-144.99;98.27;52195.34;5053058;28;19953;-62
2021/04/30 05:03:26;;;;;;;;;;;;;;;-144.99;98.24;52227.97;5053352;28;19985;-62
2021/04/30 05:05:54;;;;;;;;;;;;;;;-144.99;98.23;52225.94;5052769;28;19972;-62
2021/04/30 05:08:19;;;;;;;;;;;;;;;-144.99;98.20;52203.50;5051301;28;19991;-62
2021/04/30 05:10:45;;;;;;;;;;;;;;;-144.99;98.40;52219.81;5052384;28;20689;-62
2021/04/30 05:13:11;;;;;;;;;;;;;;;-144.99;98.20;52223.88;5050914;28;19963;-63
2021/04/30 05:15:37;;;;;;;;;;;;;;;-144.99;98.25;52240.19;5053037;28;19958;-62
2021/04/30 05:18:03;;;;;;;;;;;;;;;-144.99;98.28;52219.81;5052407;28;19966;-63
2021/04/30 05:20:31;;;;;;;;;;;;;;;-144.99;98.23;52246.31;5052495;28;19948;-63
2021/04/30 05:22:59;;;;;;;;;;;;;;;-144.99;98.14;52211.66;5052482;28;20027;-63
2021/04/30 05:25:28;;;;;;;;;;;;;;;-144.99;98.13;52170.91;5052587;28;19981;-62
2021/04/30 05:27:56;;;;;;;;;;;;;;;-144.99;98.09;52240.19;5051884;28;19983;-63
2021/04/30 05:30:25;;;;;;;;;;;;;;;-144.99;98.16;52158.66;5051954;28;20343;-63
2021/04/30 05:32:51;;;;;;;;;;;;;;;-144.99;98.09;52240.19;5052144;28;19973;-63
2021/04/30 05:35:17;;;;;;;;;;;;;;;-144.99;98.00;52232.03;5052805;28;19989;-63
2021/04/30 05:37:43;;;;;;;;;;;;;;;-144.99;97.83;52219.81;5052397;28;20104;-60
2021/04/30 05:40:10;;;;;;;;;;;;;;;-144.99;97.71;52199.44;5051805;28;19976;-63
2021/04/30 05:42:39;;;;;;;;;;;;;;;-144.99;97.73;52193.31;5050752;28;19961;-62
2021/04/30 05:45:05;;;;;;;;;;;;;;;-144.99;97.57;52223.88;5051888;28;20375;-61
2021/04/30 05:47:31;;;;;;;;;;;;;;;-144.99;97.41;52225.94;5051945;28;19956;-63
2021/04/30 05:50:00;;;;;;;;;;;;;;;-144.99;97.28;52215.75;5050522;28;20034;-63
2021/04/30 05:52:26;;;;;;;;;;;;;;;-144.99;96.96;52195.34;5051539;28;19956;-63
2021/04/30 05:54:52;;;;;;;;;;;;;;;-144.99;97.14;52211.66;5051606;28;20046;-63
2021/04/30 05:57:18;;;;;;;;;;;;;;;-144.99;97.15;52203.50;5051475;28;20347;-62
2021/04/30 05:59:44;;;;;;;;;;;;;;;-144.99;96.92;52223.88;5051873;28;19963;-63
2021/04/30 06:02:10;;;;;;;;;;;;;;;-144.99;96.48;52219.81;5051145;28;20006;-62
2021/04/30 06:04:36;;;;;;;;;;;;;;;-144.99;95.95;52166.81;5051956;28;19959;-62
2021/04/30 06:07:04;;;;;;;;;;;;;;;-144.99;95.58;52219.81;5051628;28;20528;-62
2021/04/30 06:09:30;;;;;;;;;;;;;;;-144.99;95.02;52227.97;5047614;28;20357;-61
2021/04/30 06:11:56;;;;;;;;;;;;;;;-144.99;94.76;52179.06;5051537;28;19966;-61
2021/04/30 06:14:29;;;;;;;;;;;;;;;-144.99;94.44;52230.00;5051828;28;20418;-62
2021/04/30 06:16:55;;;;;;;;;;;;;;;-144.99;94.12;52183.13;5050693;28;19967;-62
2021/04/30 06:19:21;;;;;;;;;;;;;;;-144.99;93.73;52223.88;5051346;28;19971;-63
2021/04/30 06:21:49;;;;;;;;;;;;;;;-144.99;93.06;52205.53;5051105;28;19958;-61
2021/04/30 06:24:15;;;;;;;;;;;;;;;-144.99;93.00;52203.50;5050865;28;20302;-62
2021/04/30 06:26:41;;;;;;;;;;;;;;;-144.99;93.03;52219.81;5051067;28;19959;-62
2021/04/30 06:29:08;;;;;;;;;;;;;;;-144.99;92.98;52232.03;5050736;28;19974;-62
2021/04/30 06:31:38;;;;;;;;;;;;;;;-144.99;92.80;52174.97;5050564;28;19954;-63
2021/04/30 06:34:04;;;;;;;;;;;;;;;-144.99;92.25;52191.28;5052086;28;19968;-63
2021/04/30 06:36:30;;;;;;;;;;;;;;;-144.99;92.17;52164.78;5042805;28;19974;-62
2021/04/30 06:38:56;;;;;;;;;;;;;;;-144.99;91.68;52181.09;5050435;28;20408;-63
2021/04/30 06:41:21;;;;;;;;;;;;;;;-144.99;91.42;52183.13;5050448;28;19971;-61
2021/04/30 06:43:47;;;;;;;;;;;;;;;-144.99;91.25;52227.97;5050451;28;20247;-63
2021/04/30 06:46:13;;;;;;;;;;;;;;;-144.99;91.07;52158.66;5050565;28;19965;-63
2021/04/30 06:48:40;;;;;;;;;;;;;;;-144.99;90.58;52162.75;5050504;28;19973;-63
2021/04/30 06:51:15;;;;;;;;;;;;;;;-144.99;90.20;52183.13;5050647;28;20365;-62
2021/04/30 06:53:42;;;;;;;;;;;;;;;-144.99;89.84;52207.59;5049880;28;20318;-62
2021/04/30 06:56:08;;;;;;;;;;;;;;;-144.99;89.16;52183.13;5050546;28;20029;-62
2021/04/30 06:58:34;;;;;;;;;;;;;;;-144.99;88.25;52187.19;5050270;28;19981;-62
2021/04/30 07:01:00;;;;;;;;;;;;;;;-144.99;88.25;52174.97;5050711;28;19984;-62
2021/04/30 07:03:26;;;;;;;;;;;;;;;-144.99;87.86;52191.28;5050801;28;20007;-63
2021/04/30 07:05:53;;;;;;;;;;;;;;;-144.99;87.42;52142.38;5050286;28;19964;-62
2021/04/30 07:08:19;;;;;;;;;;;;;;;-144.99;86.68;52181.09;5050270;28;20403;-63
2021/04/30 07:10:45;;;;;;;;;;;;;;;-144.99;86.77;52162.75;5050266;28;19963;-61
2021/04/30 07:13:11;;;;;;;;;;;;;;;-144.99;85.69;52162.75;5050004;28;19980;-63
2021/04/30 07:15:37;;;;;;;;;;;;;;;-144.99;84.93;52117.91;5050205;28;19962;-63
2021/04/30 07:18:03;;;;;;;;;;;;;;;-144.99;84.03;52199.44;5049275;28;20050;-63
2021/04/30 07:20:30;;;;;;;;;;;;;;;-144.99;83.45;52142.38;5049826;28;19984;-62
2021/04/30 07:22:57;;;;;;;;;;;;;;;-144.99;82.63;52124.03;5050383;28;19973;-62
2021/04/30 07:25:23;;;;;;;;;;;;;;;-144.99;80.52;52146.44;5049707;28;20475;-63
2021/04/30 07:27:49;;;;;;;;;;;;;;;-144.99;79.72;52154.59;5050417;28;19973;-63
2021/04/30 07:30:18;;;;;;;;;;;;;;;-144.99;77.55;52126.06;5049791;28;20000;-62
2021/04/30 07:32:44;;;;;;;;;;;;;;;-144.99;77.76;52146.44;5051070;28;19989;-63
2021/04/30 07:35:10;;;;;;;;;;;;;;;-144.99;76.94;52146.44;5050471;28;20442;-62
2021/04/30 07:37:37;;;;;;;;;;;;;;;-144.99;76.33;52124.03;5050125;28;20317;-62
2021/04/30 07:40:07;;;;;;;;;;;;;;;-144.99;75.28;52138.28;5049534;28;19996;-62
2021/04/30 07:42:33;;;;;;;;;;;;;;;-144.99;73.68;52150.53;5049798;28;19948;-63
2021/04/30 07:45:01;;;;;;;;;;;;;;;-144.99;73.42;52150.53;5049780;28;19958;-61
2021/04/30 07:47:27;;;;;;;;;;;;;;;-144.99;72.74;52101.59;5050763;28;19966;-62
2021/04/30 07:49:53;;;;;;;;;;;;;;;-144.99;73.27;52126.06;5050813;28;19994;-60
2021/04/30 07:52:22;;;;;;;;;;;;;;;-144.99;71.44;52154.59;5050679;28;19996;-60
2021/04/30 07:54:48;;;;;;;;;;;;;;;-144.99;71.45;52174.97;5049802;28;20313;-61
2021/04/30 07:57:14;;;;;;;;;;;;;;;-144.99;71.23;52113.84;5049764;28;19961;-61
2021/04/30 07:59:40;;;;;;;;;;;;;;;-144.99;70.57;52168.84;5049432;28;20048;-62
2021/04/30 08:02:07;;;;;;;;;;;;;;;-144.99;69.83;52138.28;5049115;28;20382;-60
2021/04/30 08:04:33;;;;;;;;;;;;;;;-144.99;69.26;52166.81;5049386;28;19984;-62
2021/04/30 08:06:59;;;;;;;;;;;;;;;-144.99;69.09;52117.91;5049687;28;19973;-62
2021/04/30 08:09:28;;;;;;;;;;;;;;;-144.99;68.37;52154.59;5049245;28;20008;-63
2021/04/30 08:11:56;;;;;;;;;;;;;;;-144.99;67.48;52109.75;5049666;28;20063;-62
2021/04/30 08:14:25;;;;;;;;;;;;;;;-144.99;65.88;52158.66;5049953;28;20038;-62
2021/04/30 08:16:52;;;;;;;;;;;;;;;-144.99;64.89;52101.59;5049245;28;20317;-62
2021/04/30 08:19:18;;;;;;;;;;;;;;;-144.99;63.83;52105.69;5052955;28;20383;-62
2021/04/30 08:21:44;;;;;;;;;;;;;;;-144.99;63.10;52081.22;5053622;28;19957;-62
2021/04/30 08:24:10;;;;;;;;;;;;;;;-144.99;62.49;52146.44;5053493;28;20382;-62
2021/04/30 08:26:36;;;;;;;;;;;;;;;-144.99;62.94;52121.97;5053492;28;19954;-62
2021/04/30 08:29:02;;;;;;;;;;;;;;;-144.99;62.96;52146.44;5055419;28;19977;-61
2021/04/30 08:31:29;;;;;;;;;;;;;;;-144.99;63.10;52158.66;5053563;28;20029;-61
2021/04/30 08:33:55;;;;;;;;;;;;;;;-144.99;63.61;52138.28;5053520;28;19999;-61
2021/04/30 08:36:22;;;;;;;;;;;;;;;-144.99;64.37;52138.28;5053618;28;19954;-63
2021/04/30 08:38:48;;;;;;;;;;;;;;;-144.99;64.60;52195.34;5053123;28;19962;-63
2021/04/30 08:41:14;;;;;;;;;;;;;;;-144.99;65.34;52142.38;5053313;28;19989;-62
2021/04/30 08:43:41;;;;;;;;;;;;;;;-144.99;64.91;52158.66;5053135;28;19947;-62
2021/04/30 08:46:11;;;;;;;;;;;;;;;-144.99;65.48;52154.59;5052960;28;19949;-61
2021/04/30 08:48:41;;;;;;;;;;;;;;;-144.99;65.94;52156.63;5053543;28;19975;-62
2021/04/30 08:51:09;;;;;;;;;;;;;;;-144.99;65.95;52183.13;5053511;28;19951;-62
2021/04/30 08:53:35;;;;;;;;;;;;;;;-144.99;66.16;52199.44;5050965;28;20036;-61
2021/04/30 08:56:03;;;;;;;;;;;;;;;-144.99;65.84;52113.84;5052514;28;19953;-64
2021/04/30 08:58:29;;;;;;;;;;;;;;;-144.99;66.32;52138.28;5052959;28;20052;-61
2021/04/30 09:00:56;;;;;;;;;;;;;;;-144.99;66.34;52138.28;5052485;28;20427;-61
2021/04/30 09:03:22;;;;;;;;;;;;;;;-144.99;66.00;52185.16;5052945;28;19972;-61
2021/04/30 09:05:50;;;;;;;;;;;;;;;-144.99;66.35;52174.97;5052912;28;19947;-61
2021/04/30 09:08:16;;;;;;;;;;;;;;;-144.99;66.89;52174.97;5052434;28;20066;-61
2021/04/30 09:10:48;;;;;;;;;;;;;;;-144.99;67.25;52162.75;5052085;28;20009;-61
2021/04/30 09:13:16;;;;;;;;;;;;;;;-144.99;67.46;52174.97;5052267;28;20005;-62
2021/04/30 09:15:43;;;;;;;;;;;;;;;-144.99;67.21;52121.97;5052147;28;20000;-61
2021/04/30 09:18:19;;;;;;;;;;;;;;;-144.99;67.09;52117.91;5051910;28;20076;-61
2021/04/30 09:20:47;;;;;;;;;;;;;;;-144.99;67.21;52130.13;5052808;28;19945;-62
2021/04/30 09:23:36;;;;;;;;;;;;;;;-144.99;66.13;52166.81;5052109;28;19960;-63
2021/04/30 09:26:17;;;;;;;;;;;;;;;-144.99;66.09;52158.66;5052318;28;19990;-61
2021/04/30 09:28:57;;;;;;;;;;;;;;;-144.99;65.55;52097.53;5045430;28;20428;-62
2021/04/30 09:31:31;;;;;;;;;;;;;;;-144.99;63.88;52142.38;5052210;28;20258;-61
2021/04/30 09:34:13;;;;;;;;;;;;;;;-144.99;61.49;52121.97;5053803;28;20034;-61
2021/04/30 09:36:55;;;;;;;;;;;;;;;-144.99;60.68;52126.06;5046076;28;20329;-62
2021/04/30 09:39:21;;;;;;;;;;;;;;;-144.99;59.35;52113.84;5053854;28;19985;-60
2021/04/30 09:42:04;;;;;;;;;;;;;;;-144.99;58.39;52138.28;5053984;28;20125;-60
2021/04/30 09:44:33;;;;;;;;;;;;;;;-144.99;59.19;52170.91;5045971;28;20038;-61
2021/04/30 09:47:13;;;;;;;;;;;;;;;-144.99;59.09;52150.53;5053175;28;20428;-60
2021/04/30 09:49:39;;;;;;;;;;;;;;;-144.99;59.14;52185.16;5045306;28;20475;-62
2021/04/30 09:52:08;;;;;;;;;;;;;;;-144.99;59.30;52174.97;5053085;28;19958;-62
2021/04/30 09:54:37;;;;;;;;;;;;;;;-144.99;59.18;52132.19;5052576;28;19953;-61
2021/04/30 09:57:07;;;;;;;;;;;;;;;-144.99;58.68;52146.44;5053474;28;20078;-61
2021/04/30 09:59:33;;;;;;;;;;;;;;;-144.99;58.97;52162.75;5045337;28;20487;-61
2021/04/30 10:02:03;;;;;;;;;;;;;;;-144.99;59.51;52154.59;5051768;28;19954;-61
2021/04/30 10:04:31;;;;;;;;;;;;;;;-144.99;58.64;52168.84;5052067;28;20410;-60
2021/04/30 10:07:00;;;;;;;;;;;;;;;-144.99;59.65;52093.44;5052190;28;20041;-62
2021/04/30 10:09:26;;;;;;;;;;;;;;;-144.99;58.81;52128.09;5051694;28;19975;-62
2021/04/30 10:11:53;;;;;;;;;;;;;;;-144.99;57.70;52115.88;5051637;28;20357;-61
2021/04/30 10:14:19;;;;;;;;;;;;;;;-144.99;57.24;52097.53;5052289;28;19955;-61
2021/04/30 10:16:49;;;;;;;;;;;;;;;-144.99;56.04;52056.78;5050980;28;19995;-62
2021/04/30 10:19:18;;;;;;;;;;;;;;;-144.99;54.32;52101.59;5051057;28;20050;-62
2021/04/30 10:21:45;;;;;;;;;;;;;;;-144.99;52.92;52126.06;5053265;28;20012;-62
2021/04/30 10:24:13;;;;;;;;;;;;;;;-144.99;52.28;52150.53;5052359;28;19948;-62
2021/04/30 10:26:39;;;;;;;;;;;;;;;-144.99;53.47;52128.09;5051626;28;20415;-62
2021/04/30 10:29:08;;;;;;;;;;;;;;;-144.99;53.52;52036.38;5050754;28;20013;-62
2021/04/30 10:31:36;;;;;;;;;;;;;;;-144.99;52.88;52044.53;5050917;28;20137;-62
2021/04/30 10:34:05;;;;;;;;;;;;;;;-144.99;51.87;52150.53;5051490;28;19949;-61
2021/04/30 10:36:33;;;;;;;;;;;;;;;-144.99;52.48;52130.13;5043190;28;19949;-61
2021/04/30 10:39:01;;;;;;;;;;;;;;;-144.99;52.19;52117.91;5051446;28;20362;-60
2021/04/30 10:41:27;;;;;;;;;;;;;;;-144.99;52.07;52134.22;5050260;28;19947;-61
2021/04/30 10:44:08;;;;;;;;;;;;;;;-144.99;51.63;52103.66;5050852;28;19950;-61
2021/04/30 10:46:35;;;;;;;;;;;;;;;-144.99;51.24;52121.97;5045328;28;20018;-60
2021/04/30 10:49:24;;;;;;;;;;;;;;;-144.99;51.42;52162.75;5049825;28;19994;-61
2021/04/30 10:52:19;;;;;;;;;;;;;;;-144.99;51.51;52166.81;5047034;28;19974;-62
2021/04/30 10:54:45;;;;;;;;;;;;;;;-144.99;52.11;52154.59;5045037;28;19977;-62
2021/04/30 10:57:12;;;;;;;;;;;;;;;-144.99;51.52;52154.59;5050680;28;20007;-63
2021/04/30 10:59:44;;;;;;;;;;;;;;;-144.99;51.80;52191.28;5050474;28;19967;-62
2021/04/30 11:02:12;;;;;;;;;;;;;;;-144.99;51.27;52158.66;5050107;28;19953;-63
2021/04/30 11:05:01;;;;;;;;;;;;;;;-144.99;51.39;52160.72;5050614;28;19946;-62
2021/04/30 11:07:30;;;;;;;;;;;;;;;-144.99;51.65;52195.34;5050387;28;20340;-63
2021/04/30 11:09:56;;;;;;;;;;;;;;;-144.99;51.03;52158.66;5050392;28;19978;-63
2021/04/30 11:12:25;;;;;;;;;;;;;;;-144.99;51.59;52158.66;5052354;28;20363;-62
2021/04/30 11:15:05;;;;;;;;;;;;;;;-144.99;51.25;52154.59;5048767;28;19954;-62
2021/04/30 11:17:53;;;;;;;;;;;;;;;-144.99;51.59;52152.56;5048183;28;20274;-62
2021/04/30 11:20:21;;;;;;;;;;;;;;;-144.99;51.51;52203.50;5048013;28;19986;-62
2021/04/30 11:23:02;;;;;;;;;;;;;;;-144.99;52.35;52215.75;5050181;28;19948;-62
2021/04/30 11:25:27;;;;;;;;;;;;;;;-144.99;52.65;52227.97;5049362;28;19956;-63
2021/04/30 11:27:54;;;;;;;;;;;;;;;-144.99;53.09;52197.41;5050288;28;19956;-62
2021/04/30 11:30:21;;;;;;;;;;;;;;;-144.99;53.31;52215.75;5049355;28;19975;-63
2021/04/30 11:32:52;;;;;;;;;;;;;;;-144.99;53.86;52170.91;5050658;28;19950;-62
2021/04/30 11:35:18;;;;;;;;;;;;;;;-144.99;53.89;52199.44;5050561;28;19950;-62
2021/04/30 11:37:48;;;;;;;;;;;;;;;-144.99;54.11;52183.13;5050028;28;20320;-63
2021/04/30 11:40:14;;;;;;;;;;;;;;;-144.99;53.75;52195.34;5049472;28;20439;-62
2021/04/30 11:42:40;;;;;;;;;;;;;;;-144.99;53.31;52187.19;5050363;28;19952;-62
2021/04/30 11:45:07;;;;;;;;;;;;;;;-144.99;53.04;52215.75;5049534;28;19947;-63
2021/04/30 11:47:35;;;;;;;;;;;;;;;-144.99;52.28;52193.31;5050302;28;20036;-62
2021/04/30 11:50:03;;;;;;;;;;;;;;;-144.99;51.30;52179.06;5049133;28;20387;-63
2021/04/30 11:52:30;;;;;;;;;;;;;;;-144.99;52.26;52207.59;5050095;28;20033;-63
2021/04/30 11:55:00;;;;;;;;;;;;;;;-144.99;53.10;52199.44;5050063;28;19950;-63
2021/04/30 11:57:26;;;;;;;;;;;;;;;-144.99;52.79;52168.84;5050245;28;19957;-63
2021/04/30 11:59:53;;;;;;;;;;;;;;;-144.99;52.77;52154.59;5049561;28;19964;-62
2021/04/30 12:02:19;;;;;;;;;;;;;;;-144.99;53.15;52223.88;5050126;28;19985;-62
2021/04/30 12:04:46;;;;;;;;;;;;;;;-144.99;52.42;52207.59;5050170;28;19952;-62
2021/04/30 12:07:15;;;;;;;;;;;;;;;-144.99;52.28;52207.59;5050003;28;19948;-62
2021/04/30 12:09:41;;;;;;;;;;;;;;;-144.99;53.13;52179.06;5049061;28;19969;-61
2021/04/30 12:12:11;;;;;;;;;;;;;;;-144.99;53.48;52213.69;5050447;28;20053;-62
2021/04/30 12:14:44;;;;;;;;;;;;;;;-144.99;53.47;52197.41;5051548;28;19954;-62
2021/04/30 12:17:19;;;;;;;;;;;;;;;-144.99;53.29;52232.03;5049568;28;19948;-62
2021/04/30 12:19:55;;;;;;;;;;;;;;;-144.99;53.55;52211.66;5047780;28;19971;-62
2021/04/30 12:22:22;;;;;;;;;;;;;;;-144.99;53.38;52211.66;5047261;28;19957;-63
2021/04/30 12:24:48;;;;;;;;;;;;;;;-144.99;54.43;52211.66;5049974;28;19957;-62
2021/04/30 12:27:24;;;;;;;;;;;;;;;-144.99;54.82;52199.44;5049075;28;20012;-62